Time;durP1;ratioP1;P1;durP2;ratioP2;P2;SDS_P1;SDS_P2;PMS_P1;PMS_P2;Temp;Humidity;BMP_temperature;BMP_pressure;BME280_temperature;BME280_humidity;BME280_pressure;Samples;Min_cycle;Max_cycle;Signal;HPM_P1;HPM_P2
2022/06/11 00:01:13;;;;;;;6.25;3.00;;;15.10;99.90;;;;;;4980220;28;20078;-66
2022/06/11 00:03:41;;;;;;;3.78;2.67;;;15.10;99.90;;;;;;4975511;28;20086;-71
2022/06/11 00:06:08;;;;;;;3.42;3.13;;;15.00;99.90;;;;;;4976348;28;20055;-66
2022/06/11 00:08:35;;;;;;;2.42;2.25;;;15.00;99.90;;;;;;4981008;28;20394;-68
2022/06/11 00:11:02;;;;;;;4.57;3.53;;;15.00;99.90;;;;;;4980609;28;20121;-67
2022/06/11 00:13:29;;;;;;;4.90;2.85;;;15.00;99.90;;;;;;4975399;28;20042;-66
2022/06/11 00:15:56;;;;;;;3.05;2.78;;;15.00;99.90;;;;;;4973384;28;20536;-71
2022/06/11 00:18:24;;;;;;;3.00;2.75;;;15.00;99.90;;;;;;4980968;28;20055;-67
2022/06/11 00:20:51;;;;;;;3.45;3.17;;;15.00;99.90;;;;;;4979970;28;20057;-66
2022/06/11 00:23:18;;;;;;;3.50;3.22;;;15.00;99.90;;;;;;4974453;28;20066;-69
2022/06/11 00:25:46;;;;;;;3.25;2.92;;;15.00;99.90;;;;;;4973082;28;20362;-71
2022/06/11 00:28:14;;;;;;;3.53;3.22;;;15.00;99.90;;;;;;4987484;28;20062;-66
2022/06/11 00:30:40;;;;;;;3.20;2.90;;;15.00;99.90;;;;;;4999328;28;20045;-66
2022/06/11 00:33:07;;;;;;;3.13;2.83;;;15.00;99.90;;;;;;5004353;28;20232;-71
2022/06/11 00:35:37;;;;;;;3.45;3.15;;;15.00;99.90;;;;;;4996190;28;20073;-68
2022/06/11 00:38:05;;;;;;;3.30;3.00;;;15.00;99.90;;;;;;4994649;28;20116;-68
2022/06/11 00:40:34;;;;;;;4.22;3.08;;;15.00;99.90;;;;;;5000340;28;20131;-71
2022/06/11 00:43:02;;;;;;;3.90;3.53;;;15.00;99.90;;;;;;5000285;28;20517;-68
2022/06/11 00:45:29;;;;;;;3.58;3.00;;;15.00;99.90;;;;;;5002048;28;20046;-67
2022/06/11 00:48:13;;;;;;;3.80;2.75;;;15.00;99.90;;;;;;4999232;28;20046;-71
2022/06/11 00:50:49;;;;;;;4.55;2.58;;;15.00;99.90;;;;;;4997610;28;20054;-66
2022/06/11 00:53:30;;;;;;;3.60;3.30;;;15.00;99.90;;;;;;4992802;28;20096;-69
2022/06/11 00:55:58;;;;;;;2.80;2.15;;;15.00;99.90;;;;;;5004221;28;20052;-72
2022/06/11 00:58:34;;;;;;;2.50;2.30;;;14.90;99.90;;;;;;4999877;28;20052;-70
2022/06/11 01:01:01;;;;;;;4.88;2.97;;;14.90;99.90;;;;;;5000274;28;20136;-67
2022/06/11 01:03:33;;;;;;;2.85;2.65;;;14.90;99.90;;;;;;4997277;28;20062;-70
2022/06/11 01:06:22;;;;;;;2.85;2.65;;;14.90;99.90;;;;;;4999675;28;20139;-68
2022/06/11 01:08:52;;;;;;;3.22;2.28;;;14.80;99.90;;;;;;4996194;28;20069;-69
2022/06/11 01:11:35;;;;;;;2.60;2.40;;;14.80;99.90;;;;;;4992664;28;20136;-67
2022/06/11 01:14:37;;;;;;;2.33;2.17;;;14.80;99.90;;;;;;5001950;28;20459;-66
2022/06/11 01:17:31;;;;;;;3.08;2.50;;;14.80;99.90;;;;;;4992945;28;20730;-68
2022/06/11 01:20:23;;;;;;;2.78;2.58;;;14.80;99.90;;;;;;5000919;28;20045;-70
2022/06/11 01:23:11;;;;;;;2.72;2.53;;;14.80;99.90;;;;;;5000752;28;20046;-72
2022/06/11 01:25:53;;;;;;;3.00;2.80;;;14.70;99.90;;;;;;4996551;28;20062;-67
2022/06/11 01:28:23;;;;;;;2.80;2.60;;;14.80;99.90;;;;;;4992120;28;20061;-69
2022/06/11 01:30:56;;;;;;;3.80;2.92;;;14.70;99.90;;;;;;4980772;28;20050;-67
2022/06/11 01:33:28;;;;;;;2.85;2.60;;;14.70;99.90;;;;;;4979842;28;20109;-69
2022/06/11 01:36:04;;;;;;;2.78;2.58;;;14.60;99.90;;;;;;4980045;28;20108;-68
2022/06/11 01:38:38;;;;;;;5.15;3.63;;;14.60;99.90;;;;;;4981161;28;20057;-66
2022/06/11 01:41:17;;;;;;;4.22;3.03;;;14.60;99.90;;;;;;4966298;28;20070;-66
2022/06/11 01:43:46;;;;;;;5.18;3.08;;;14.50;99.90;;;;;;4982730;28;20054;-68
2022/06/11 01:46:18;;;;;;;3.95;3.55;;;14.50;99.90;;;;;;4967123;28;20527;-67
2022/06/11 01:48:55;;;;;;;3.92;2.97;;;14.40;99.90;;;;;;4980110;28;20057;-66
2022/06/11 01:51:49;;;;;;;3.35;2.65;;;14.40;99.90;;;;;;4983714;28;20724;-68
2022/06/11 01:54:36;;;;;;;4.07;3.35;;;14.40;99.90;;;;;;4980187;28;20121;-66
2022/06/11 01:57:25;;;;;;;4.00;3.55;;;14.40;99.90;;;;;;4973389;28;20087;-69
2022/06/11 01:59:58;;;;;;;3.72;3.42;;;14.30;99.90;;;;;;4980610;28;20050;-69
2022/06/11 02:02:53;;;;;;;3.67;3.30;;;14.30;99.90;;;;;;4977997;28;20781;-67
2022/06/11 02:05:42;;;;;;;3.42;3.13;;;14.30;99.90;;;;;;4971320;28;20137;-68
2022/06/11 02:08:45;;;;;;;5.57;3.90;;;14.30;99.90;;;;;;4978383;28;20062;-68
2022/06/11 02:11:16;;;;;;;2.78;2.58;;;14.20;99.90;;;;;;4963832;28;20052;-67
2022/06/11 02:13:56;;;;;;;6.70;3.63;;;14.20;99.90;;;;;;4976163;28;20093;-66
2022/06/11 02:16:23;;;;;;;;;;;14.20;99.90;;;;;;4979967;28;20047;-68
2022/06/11 02:18:53;;;;;;;3.70;3.38;;;14.20;99.90;;;;;;4979513;28;19956;-69
2022/06/11 02:21:26;;;;;;;5.50;3.38;;;14.10;99.90;;;;;;4974331;28;20390;-66
2022/06/11 02:24:25;;;;;;;5.85;3.40;;;14.10;99.90;;;;;;4979753;28;20082;-68
2022/06/11 02:26:56;;;;;;;3.90;3.10;;;14.10;99.90;;;;;;4976401;28;20097;-67
2022/06/11 02:29:24;;;;;;;4.00;3.70;;;14.10;99.90;;;;;;4990522;28;21562;-70
2022/06/11 02:31:57;;;;;;;4.63;3.17;;;14.20;99.90;;;;;;4998915;28;20132;-67
2022/06/11 02:34:26;;;;;;;3.38;2.95;;;14.20;99.90;;;;;;4993727;28;20142;-70
2022/06/11 02:37:10;;;;;;;3.83;3.40;;;14.20;99.90;;;;;;4996856;28;20042;-69
2022/06/11 02:39:41;;;;;;;3.38;3.08;;;14.20;99.90;;;;;;4996578;28;20046;-67
2022/06/11 02:42:12;;;;;;;3.47;3.17;;;14.20;99.90;;;;;;4995511;28;20534;-69
2022/06/11 02:44:39;;;;;;;3.03;2.83;;;14.20;99.90;;;;;;4996165;28;20164;-72
2022/06/11 02:47:06;;;;;;;3.05;2.80;;;14.20;99.90;;;;;;4997061;28;20219;-72
2022/06/11 02:49:36;;;;;;;3.08;2.78;;;14.20;99.90;;;;;;5000620;28;20057;-67
2022/06/11 02:52:10;;;;;;;3.15;2.83;;;14.20;99.90;;;;;;4996907;28;20053;-66
2022/06/11 02:54:38;;;;;;;3.10;2.90;;;14.20;99.90;;;;;;4999418;28;20046;-67
2022/06/11 02:57:07;;;;;;;3.88;3.58;;;14.20;99.90;;;;;;4992660;28;20073;-65
2022/06/11 02:59:35;;;;;;;2.93;2.73;;;14.20;99.90;;;;;;4999274;28;20045;-67
2022/06/11 03:02:03;;;;;;;3.55;3.25;;;14.20;99.90;;;;;;4997435;28;20311;-67
2022/06/11 03:04:31;;;;;;;3.60;3.22;;;14.20;99.90;;;;;;4998004;28;20157;-68
2022/06/11 03:07:00;;;;;;;4.13;3.38;;;14.20;99.90;;;;;;4997296;28;20911;-70
2022/06/11 03:09:30;;;;;;;4.75;4.38;;;14.20;99.90;;;;;;4998878;28;20056;-69
2022/06/11 03:11:58;;;;;;;4.00;3.60;;;14.20;99.90;;;;;;5001645;28;20125;-68
2022/06/11 03:14:25;;;;;;;9.50;3.60;;;14.20;99.90;;;;;;5002254;28;20054;-69
2022/06/11 03:16:52;;;;;;;3.13;2.72;;;14.20;99.90;;;;;;4996751;28;20098;-67
2022/06/11 03:19:21;;;;;;;3.53;3.22;;;14.30;99.90;;;;;;5001723;28;20149;-68
2022/06/11 03:21:50;;;;;;;4.38;3.38;;;14.30;99.90;;;;;;5005133;28;20132;-66
2022/06/11 03:24:17;;;;;;;3.40;3.10;;;14.30;99.90;;;;;;5000219;28;20045;-70
2022/06/11 03:26:45;;;;;;;3.65;3.10;;;14.30;99.90;;;;;;5002355;28;20050;-68
2022/06/11 03:29:12;;;;;;;2.88;2.67;;;14.30;99.90;;;;;;5001329;28;20217;-67
2022/06/11 03:31:39;;;;;;;2.92;2.63;;;14.30;99.90;;;;;;5003474;28;20050;-68
2022/06/11 03:34:06;;;;;;;2.67;2.45;;;14.30;99.90;;;;;;5005325;28;20065;-68
2022/06/11 03:36:34;;;;;;;3.15;2.95;;;14.30;99.90;;;;;;5001112;28;20192;-67
2022/06/11 03:39:02;;;;;;;4.47;3.10;;;14.40;99.90;;;;;;4999272;28;20108;-66
2022/06/11 03:41:29;;;;;;;3.22;2.97;;;14.40;99.90;;;;;;4998874;28;20081;-65
2022/06/11 03:43:56;;;;;;;3.17;2.88;;;14.40;99.90;;;;;;5006012;28;20073;-66
2022/06/11 03:46:23;;;;;;;4.63;3.28;;;14.40;99.90;;;;;;5001472;28;20137;-65
2022/06/11 03:48:51;;;;;;;3.10;2.85;;;14.40;99.90;;;;;;4996757;28;20144;-68
2022/06/11 03:51:19;;;;;;;5.10;3.10;;;14.40;99.90;;;;;;5002492;28;20525;-67
2022/06/11 03:53:46;;;;;;;3.55;3.22;;;14.50;99.90;;;;;;5002629;28;20135;-66
2022/06/11 03:56:14;;;;;;;2.80;2.60;;;14.50;99.90;;;;;;4998471;28;20109;-67
2022/06/11 03:58:43;;;;;;;3.33;3.05;;;14.50;99.90;;;;;;5003004;28;20046;-67
2022/06/11 04:01:19;;;;;;;3.78;3.47;;;14.50;99.90;;;;;;4994547;28;20523;-67
2022/06/11 04:03:50;;;;;;;3.47;2.92;;;14.50;99.90;;;;;;5000570;28;20077;-67
2022/06/11 04:06:29;;;;;;;3.00;2.70;;;14.60;99.90;;;;;;4997328;28;20050;-67
2022/06/11 04:08:57;;;;;;;3.08;2.67;;;14.60;99.90;;;;;;4999408;28;20046;-68
2022/06/11 04:11:25;;;;;;;2.78;2.58;;;14.60;99.90;;;;;;5002695;28;20152;-65
2022/06/11 04:13:53;;;;;;;3.28;2.63;;;14.60;99.90;;;;;;5002861;28;20131;-65
2022/06/11 04:16:48;;;;;;;3.63;3.33;;;14.60;99.90;;;;;;4999458;28;20711;-70
2022/06/11 04:19:19;;;;;;;4.45;3.25;;;14.60;99.90;;;;;;4998827;28;20365;-68
2022/06/11 04:21:47;;;;;;;6.93;4.70;;;14.60;99.90;;;;;;4995053;28;20046;-66
2022/06/11 04:24:15;;;;;;;3.83;2.53;;;14.70;99.90;;;;;;5001658;28;20045;-68
2022/06/11 04:26:45;;;;;;;3.75;3.45;;;14.70;99.90;;;;;;4998375;28;20056;-66
2022/06/11 04:29:16;;;;;;;3.20;2.90;;;14.80;99.90;;;;;;5001346;28;20054;-68
2022/06/11 04:31:45;;;;;;;3.80;2.45;;;14.80;99.90;;;;;;4993789;28;20061;-66
2022/06/11 04:34:13;;;;;;;2.53;2.33;;;14.80;99.90;;;;;;5001999;28;20077;-65
2022/06/11 04:36:41;;;;;;;2.75;2.55;;;14.80;99.90;;;;;;4993987;28;20053;-66
2022/06/11 04:39:09;;;;;;;3.75;2.72;;;14.80;99.90;;;;;;5000045;28;20069;-68
2022/06/11 04:41:37;;;;;;;4.20;2.58;;;14.90;99.90;;;;;;5002351;28;20483;-69
2022/06/11 04:44:05;;;;;;;3.67;2.30;;;14.90;99.90;;;;;;5001126;28;20046;-66
2022/06/11 04:46:32;;;;;;;3.17;2.90;;;14.90;99.90;;;;;;4996708;28;20136;-68
2022/06/11 04:48:59;;;;;;;2.55;2.35;;;14.90;99.90;;;;;;5000884;28;20672;-69
2022/06/11 04:51:26;;;;;;;3.50;2.25;;;15.00;99.90;;;;;;5002461;28;20053;-67
2022/06/11 04:53:53;;;;;;;3.05;2.83;;;15.00;99.90;;;;;;4995087;28;20151;-71
2022/06/11 04:56:23;;;;;;;2.50;2.30;;;15.10;99.90;;;;;;5001018;28;20208;-72
2022/06/11 04:58:51;;;;;;;;;;;15.10;99.90;;;;;;5003860;28;20456;-68
2022/06/11 05:01:19;;;;;;;2.97;2.78;;;15.10;99.90;;;;;;5000453;28;19927;-67
2022/06/11 05:03:47;;;;;;;4.15;3.40;;;15.20;99.90;;;;;;5002874;28;20096;-66
2022/06/11 05:06:17;;;;;;;2.60;2.40;;;15.20;99.90;;;;;;5000024;28;20057;-66
2022/06/11 05:08:44;;;;;;;5.35;2.58;;;15.20;99.90;;;;;;4994407;28;20108;-66
2022/06/11 05:11:11;;;;;;;2.97;2.78;;;15.20;99.90;;;;;;4997749;28;20692;-65
2022/06/11 05:13:38;;;;;;;3.75;3.38;;;15.20;99.90;;;;;;5002588;28;20124;-72
2022/06/11 05:16:06;;;;;;;4.13;3.35;;;15.30;99.90;;;;;;4998468;28;20061;-67
2022/06/11 05:18:33;;;;;;;2.85;2.65;;;15.30;99.90;;;;;;5002286;28;20097;-67
2022/06/11 05:21:02;;;;;;;3.22;2.65;;;15.30;99.90;;;;;;4992170;28;20045;-68
2022/06/11 05:23:29;;;;;;;3.25;2.33;;;15.30;99.90;;;;;;4993434;28;20108;-69
2022/06/11 05:25:56;;;;;;;3.15;2.85;;;15.30;99.90;;;;;;4987029;28;20191;-69
2022/06/11 05:28:26;;;;;;;2.95;2.50;;;15.40;99.90;;;;;;4986134;28;20109;-66
2022/06/11 05:30:54;;;;;;;2.75;2.55;;;15.40;99.90;;;;;;4975948;28;20122;-67
2022/06/11 05:33:22;;;;;;;4.13;2.88;;;15.50;99.90;;;;;;4975452;28;20038;-65
2022/06/11 05:35:50;;;;;;;2.63;2.30;;;15.60;99.90;;;;;;4977560;28;20106;-72
2022/06/11 05:38:20;;;;;;;3.22;2.92;;;15.70;99.90;;;;;;4977415;28;20104;-66
2022/06/11 05:40:48;;;;;;;;;;;15.80;99.90;;;;;;4970696;28;20486;-66
2022/06/11 05:43:15;;;;;;;3.47;2.65;;;15.90;99.90;;;;;;4971288;28;19945;-72
2022/06/11 05:45:48;;;;;;;2.45;2.25;;;16.00;99.90;;;;;;4979768;28;20086;-66
2022/06/11 05:48:17;;;;;;;3.03;2.83;;;16.00;99.90;;;;;;4974394;28;20051;-68
2022/06/11 05:50:50;;;;;;;4.40;2.65;;;16.00;99.90;;;;;;4979862;28;20165;-65
2022/06/11 05:53:20;;;;;;;6.63;2.58;;;16.00;99.90;;;;;;4976597;28;20050;-65
2022/06/11 05:55:49;;;;;;;6.75;2.70;;;16.10;99.90;;;;;;4977779;28;20121;-65
2022/06/11 05:58:29;;;;;;;3.20;2.90;;;16.20;99.90;;;;;;4971632;28;20058;-64
2022/06/11 06:00:56;;;;;;;3.47;3.13;;;16.30;99.90;;;;;;4978829;28;20386;-69
2022/06/11 06:03:23;;;;;;;8.50;2.28;;;16.40;99.90;;;;;;4977661;28;20090;-66
2022/06/11 06:05:50;;;;;;;3.97;2.17;;;16.70;99.90;;;;;;4973354;28;20149;-67
2022/06/11 06:08:17;;;;;;;7.07;2.92;;;16.80;99.90;;;;;;4980318;28;20106;-65
2022/06/11 06:10:44;;;;;;;3.60;2.30;;;16.80;99.90;;;;;;4973572;28;20523;-65
2022/06/11 06:15:57;;;;;;;2.33;2.13;;;16.90;99.90;;;;;;4975041;28;20046;-64
2022/06/11 06:18:24;;;;;;;5.53;2.63;;;16.80;99.90;;;;;;4979436;28;20054;-67
2022/06/11 06:20:51;;;;;;;4.70;2.67;;;16.80;99.90;;;;;;4977525;28;20158;-65
2022/06/11 06:23:18;;;;;;;2.63;2.33;;;16.80;99.90;;;;;;4978120;28;20078;-70
2022/06/11 06:25:46;;;;;;;3.78;3.47;;;16.70;99.90;;;;;;4978621;28;20058;-66
2022/06/11 06:28:13;;;;;;;3.00;2.60;;;16.70;99.90;;;;;;4977207;28;20093;-68
2022/06/11 06:30:40;;;;;;;5.90;3.67;;;16.70;99.90;;;;;;4994531;28;20132;-70
2022/06/11 06:33:07;;;;;;;3.50;2.88;;;16.60;99.90;;;;;;4993537;28;20082;-68
2022/06/11 06:35:35;;;;;;;4.28;2.15;;;16.60;99.90;;;;;;4995157;28;20050;-68
2022/06/11 06:38:02;;;;;;;5.53;3.53;;;16.70;99.90;;;;;;4990742;28;20091;-72
2022/06/11 06:40:30;;;;;;;2.63;2.42;;;16.80;99.90;;;;;;4997496;28;20117;-70
2022/06/11 06:43:01;;;;;;;2.55;2.30;;;16.80;99.90;;;;;;4994442;28;20065;-68
2022/06/11 06:45:28;;;;;;;2.97;2.53;;;16.90;99.90;;;;;;4989420;28;20205;-69
2022/06/11 06:47:55;;;;;;;4.32;3.55;;;17.00;99.90;;;;;;4997258;28;20460;-66
2022/06/11 06:50:22;;;;;;;2.95;2.55;;;17.00;99.90;;;;;;4996431;28;20302;-66
2022/06/11 06:52:49;;;;;;;5.05;2.80;;;17.20;99.90;;;;;;5001588;28;20053;-70
2022/06/11 06:55:16;;;;;;;4.55;2.70;;;17.30;99.90;;;;;;5003852;28;20435;-69
2022/06/11 06:57:43;;;;;;;3.35;2.20;;;17.50;99.90;;;;;;5003292;28;20125;-64
2022/06/11 07:00:11;;;;;;;5.90;2.53;;;17.70;99.90;;;;;;4998272;28;20058;-70
2022/06/11 07:02:38;;;;;;;9.77;3.03;;;17.80;99.90;;;;;;5000481;28;20042;-68
2022/06/11 07:05:06;;;;;;;5.05;2.65;;;17.80;99.90;;;;;;4998420;28;20132;-65
2022/06/11 07:07:35;;;;;;;5.82;2.42;;;17.90;99.90;;;;;;4999359;28;20484;-65
2022/06/11 07:10:04;;;;;;;7.47;2.80;;;17.90;99.90;;;;;;5007455;28;20068;-68
2022/06/11 07:12:31;;;;;;;7.05;3.95;;;18.00;99.90;;;;;;5000624;28;20058;-71
2022/06/11 07:14:58;;;;;;;4.57;3.25;;;18.00;99.90;;;;;;4999635;28;20050;-65
2022/06/11 07:17:28;;;;;;;4.45;3.17;;;18.10;99.90;;;;;;5004891;28;20073;-68
2022/06/11 07:20:12;;;;;;;7.35;2.70;;;18.20;99.90;;;;;;4997780;28;20078;-70
2022/06/11 07:22:53;;;;;;;3.42;2.75;;;18.10;99.90;;;;;;5003172;28;20077;-67
2022/06/11 07:25:20;;;;;;;6.78;2.42;;;18.20;99.90;;;;;;4992118;28;20046;-66
2022/06/11 07:27:53;;;;;;;5.28;2.40;;;18.20;99.90;;;;;;4994788;28;20126;-70
2022/06/11 07:30:23;;;;;;;10.13;2.60;;;18.30;99.90;;;;;;4981158;28;20157;-65
2022/06/11 07:32:56;;;;;;;5.88;2.97;;;18.30;99.90;;;;;;4980833;28;21103;-64
2022/06/11 07:35:24;;;;;;;5.70;2.53;;;18.30;99.90;;;;;;4983661;28;20133;-64
2022/06/11 07:37:51;;;;;;;9.18;2.40;;;18.40;99.90;;;;;;4969001;28;20113;-64
2022/06/11 07:40:19;;;;;;;3.30;2.20;;;18.50;99.90;;;;;;4979819;28;20050;-68
2022/06/11 07:42:46;;;;;;;9.32;2.72;;;18.60;99.90;;;;;;4979591;28;20077;-66
2022/06/11 07:45:13;;;;;;;4.00;2.88;;;18.70;99.90;;;;;;4973593;28;20055;-67
2022/06/11 07:47:53;;;;;;;8.07;2.67;;;18.80;99.90;;;;;;4969848;28;20876;-72
2022/06/11 07:50:29;;;;;;;4.63;2.97;;;18.90;99.90;;;;;;4971549;28;20086;-69
2022/06/11 07:52:57;;;;;;;4.95;4.47;;;19.00;99.90;;;;;;4975912;28;20378;-68
2022/06/11 07:55:25;;;;;;;6.30;2.80;;;19.00;99.90;;;;;;4975337;28;20438;-71
2022/06/11 07:57:53;;;;;;;5.18;2.42;;;18.80;99.90;;;;;;4980228;28;20137;-66
2022/06/11 08:00:24;;;;;;;7.13;3.00;;;18.70;99.90;;;;;;4978608;28;20073;-66
2022/06/11 08:02:51;;;;;;;8.45;2.20;;;18.70;99.90;;;;;;4977663;28;20101;-68
2022/06/11 08:05:19;;;;;;;6.95;3.53;;;18.70;99.90;;;;;;4980022;28;20050;-69
2022/06/11 08:07:47;;;;;;;5.20;2.85;;;18.80;99.90;;;;;;4981287;28;20525;-72
2022/06/11 08:10:15;;;;;;;4.38;2.65;;;18.90;99.90;;;;;;4980176;28;20097;-72
2022/06/11 08:12:42;;;;;;;3.63;2.72;;;19.00;99.90;;;;;;4981539;28;20050;-67
2022/06/11 08:15:10;;;;;;;7.78;1.98;;;19.00;99.90;;;;;;4983834;28;20054;-75
2022/06/11 08:17:37;;;;;;;9.60;2.53;;;19.10;99.90;;;;;;4978357;28;20108;-70
2022/06/11 08:20:06;;;;;;;9.10;2.80;;;19.20;99.90;;;;;;4973211;28;20043;-66
2022/06/11 08:22:33;;;;;;;2.50;2.22;;;19.30;99.90;;;;;;4977020;28;20307;-77
2022/06/11 08:25:01;;;;;;;11.18;2.47;;;19.40;99.90;;;;;;4977805;28;20149;-67
2022/06/11 08:27:28;;;;;;;5.45;2.08;;;19.50;99.90;;;;;;4968116;28;20082;-67
2022/06/11 08:29:55;;;;;;;6.68;2.90;;;19.60;99.90;;;;;;4999225;28;20202;-73
2022/06/11 08:32:22;;;;;;;4.65;1.80;;;19.60;99.90;;;;;;5000839;28;20133;-67
2022/06/11 08:34:49;;;;;;;6.68;2.97;;;19.70;99.90;;;;;;4999577;28;20084;-66
2022/06/11 08:37:17;;;;;;;3.80;2.00;;;19.70;99.90;;;;;;5005826;28;20054;-75
2022/06/11 08:39:44;;;;;;;3.33;1.77;;;19.80;99.90;;;;;;5000029;28;20656;-71
2022/06/11 08:42:33;;;;;;;2.58;1.67;;;19.80;99.90;;;;;;4998147;28;20212;-67
2022/06/11 08:45:13;;;;;;;3.10;1.92;;;19.80;99.90;;;;;;5001225;28;20050;-68
2022/06/11 08:47:52;;;;;;;4.05;2.10;;;19.90;99.90;;;;;;5002486;28;20046;-70
2022/06/11 08:50:30;;;;;;;2.58;2.28;;;19.90;99.90;;;;;;4999989;28;20057;-74
2022/06/11 08:52:58;;;;;;;6.75;2.70;;;20.00;99.90;;;;;;4995984;28;20073;-66
2022/06/11 08:55:32;;;;;;;4.32;2.78;;;20.10;99.90;;;;;;4996494;28;20185;-66
2022/06/11 08:58:21;;;;;;;3.42;2.03;;;20.20;99.90;;;;;;4995805;28;20058;-66
2022/06/11 09:00:58;;;;;;;6.05;2.63;;;20.20;99.90;;;;;;4998698;28;20194;-67
2022/06/11 09:03:46;;;;;;;3.25;2.67;;;20.40;99.90;;;;;;5004913;28;20055;-70
2022/06/11 09:07:13;;;;;;;5.47;1.70;;;20.60;99.90;;;;;;4994638;28;20050;-68
2022/06/11 09:09:46;;;;;;;4.60;2.33;;;20.80;99.90;;;;;;4977467;28;20057;-68
2022/06/11 09:12:18;;;;;;;4.13;1.92;;;20.80;99.90;;;;;;5001630;28;20058;-69
2022/06/11 09:15:25;;;;;;;2.97;1.35;;;20.60;99.90;;;;;;4993539;28;20411;-73
2022/06/11 09:18:32;;;;;;;7.43;2.13;;;20.70;99.90;;;;;;4998584;28;20119;-67
2022/06/11 09:21:18;;;;;;;4.45;1.95;;;20.80;99.90;;;;;;4998001;28;20077;-68
2022/06/11 09:24:23;;;;;;;5.55;2.20;;;21.00;99.90;;;;;;4995821;28;20149;-67
2022/06/11 09:27:04;;;;;;;9.40;2.40;;;21.10;99.90;;;;;;4993934;28;20050;-68
2022/06/11 09:29:49;;;;;;;2.15;1.75;;;21.20;99.90;;;;;;5000617;28;20201;-68
2022/06/11 09:32:36;;;;;;;4.53;1.30;;;21.30;99.90;;;;;;4996761;28;20112;-72
2022/06/11 09:35:29;;;;;;;2.88;1.42;;;21.20;99.90;;;;;;5000159;28;20053;-75
2022/06/11 09:38:02;;;;;;;4.93;1.95;;;21.10;99.90;;;;;;4977958;28;20112;-68
2022/06/11 09:40:38;;;;;;;4.75;1.50;;;21.10;99.90;;;;;;4993056;28;20046;-65
2022/06/11 09:43:39;;;;;;;5.65;2.45;;;21.30;99.90;;;;;;4997068;28;20677;-67
2022/06/11 09:46:37;;;;;;;5.28;2.05;;;21.40;99.90;;;;;;4997393;28;20083;-65
2022/06/11 09:49:55;;;;;;;1.75;1.60;;;21.40;99.90;;;;;;4979621;28;20667;-66
2022/06/11 09:52:45;;;;;;;4.00;1.55;;;21.40;99.90;;;;;;4973020;28;20050;-64
2022/06/11 09:55:21;;;;;;;4.40;2.55;;;21.50;99.90;;;;;;4994346;28;20054;-67
2022/06/11 09:58:05;;;;;;;3.55;1.52;;;21.50;99.90;;;;;;4995621;28;20061;-66
2022/06/11 10:01:04;;;;;;;5.25;2.42;;;21.70;99.90;;;;;;4997532;28;20177;-68
2022/06/11 10:03:41;;;;;;;4.65;1.88;;;21.70;99.90;;;;;;4996016;28;20042;-67
2022/06/11 10:06:17;;;;;;;4.82;1.67;;;21.70;99.90;;;;;;5008556;28;20058;-68
2022/06/11 10:08:58;;;;;;;4.22;1.92;;;21.60;99.90;;;;;;4993493;28;20057;-68
2022/06/11 10:11:44;;;;;;;;;;;21.80;99.90;;;;;;4990960;28;20037;-65
2022/06/11 10:14:29;;;;;;;8.70;2.25;;;21.80;99.90;;;;;;4993825;28;19969;-67
2022/06/11 10:17:28;;;;;;;5.40;2.13;;;21.80;99.90;;;;;;4994322;28;20046;-67
2022/06/11 10:20:01;;;;;;;3.33;2.45;;;21.80;99.90;;;;;;4998732;28;20045;-67
2022/06/11 10:22:50;;;;;;;2.45;1.58;;;21.80;99.90;;;;;;4997145;28;20520;-68
2022/06/11 10:25:40;;;;;;;4.28;1.80;;;21.70;99.90;;;;;;4995532;28;20114;-65
2022/06/11 10:28:32;;;;;;;4.95;2.72;;;21.80;99.90;;;;;;4998923;28;20065;-65
2022/06/11 10:31:28;;;;;;;4.18;1.77;;;22.00;99.90;;;;;;4997643;28;20112;-67
2022/06/11 10:34:10;;;;;;;4.28;2.20;;;21.80;99.90;;;;;;5004842;28;20045;-72
2022/06/11 10:36:47;;;;;;;6.13;2.40;;;21.90;99.90;;;;;;4998848;28;20454;-65
2022/06/11 10:39:27;;;;;;;8.80;3.00;;;21.90;99.90;;;;;;4998746;28;20145;-70
2022/06/11 10:41:59;;;;;;;;;;;22.00;99.90;;;;;;4997460;28;20046;-66
2022/06/11 10:44:38;;;;;;;5.20;1.70;;;22.10;99.90;;;;;;4994858;28;19929;-69
2022/06/11 10:47:16;;;;;;;7.65;2.75;;;22.10;99.90;;;;;;4994617;28;20058;-68
2022/06/11 10:49:45;;;;;;;4.75;1.63;;;22.20;99.90;;;;;;4997001;28;20053;-67
2022/06/11 10:52:24;;;;;;;3.78;1.83;;;22.30;99.90;;;;;;4994788;28;20129;-67
2022/06/11 10:54:51;;;;;;;2.50;1.70;;;22.30;99.90;;;;;;4995003;28;20054;-65
2022/06/11 10:57:25;;;;;;;4.47;1.75;;;22.40;99.90;;;;;;4991433;28;20069;-65
2022/06/11 11:00:05;;;;;;;4.35;1.98;;;22.70;99.90;;;;;;4997377;28;20065;-65
2022/06/11 11:02:40;;;;;;;4.07;1.93;;;22.60;99.90;;;;;;4995933;28;20092;-65
2022/06/11 11:05:14;;;;;;;10.43;2.22;;;22.90;99.90;;;;;;5001217;28;20053;-76
2022/06/11 11:07:52;;;;;;;2.35;1.25;;;22.70;99.90;;;;;;4999934;28;20080;-66
2022/06/11 11:10:27;;;;;;;7.45;1.40;;;22.80;99.90;;;;;;5000456;28;20073;-66
2022/06/11 11:13:01;;;;;;;3.28;1.45;;;22.70;99.90;;;;;;4999327;28;20080;-79
2022/06/11 11:15:38;;;;;;;5.07;2.90;;;22.60;99.90;;;;;;5000547;28;20053;-69
2022/06/11 11:18:19;;;;;;;2.50;1.45;;;22.50;99.90;;;;;;4999388;28;20128;-74
2022/06/11 11:20:48;;;;;;;4.03;1.52;;;22.40;99.90;;;;;;5000551;28;20196;-66
2022/06/11 11:23:23;;;;;;;6.95;2.78;;;22.40;99.90;;;;;;4997368;28;20120;-65
2022/06/11 11:26:15;;;;;;;5.07;1.80;;;22.40;99.90;;;;;;4996593;28;20038;-69
2022/06/11 11:28:53;;;;;;;2.28;1.10;;;22.50;99.90;;;;;;4995227;28;20046;-70
2022/06/11 11:31:28;;;;;;;4.82;2.47;;;22.70;99.90;;;;;;5000658;28;20126;-65
2022/06/11 11:34:09;;;;;;;5.10;1.45;;;22.70;99.90;;;;;;4997653;28;20046;-68
2022/06/11 11:36:37;;;;;;;4.90;1.85;;;22.70;99.90;;;;;;4996381;28;20061;-69
2022/06/11 11:39:13;;;;;;;4.43;2.05;;;22.70;99.90;;;;;;4998325;28;20070;-69
2022/06/11 11:41:49;;;;;;;5.57;1.83;;;22.70;99.90;;;;;;4997429;28;20060;-68
2022/06/11 11:44:18;;;;;;;5.00;1.40;;;22.60;99.90;;;;;;4993846;28;20054;-73
2022/06/11 11:46:51;;;;;;;4.93;1.58;;;22.70;99.90;;;;;;4994435;28;20049;-65
2022/06/11 11:49:32;;;;;;;2.88;2.28;;;22.70;99.90;;;;;;4995562;28;20202;-67
2022/06/11 11:52:15;;;;;;;5.70;1.70;;;22.70;99.90;;;;;;4995546;28;20708;-71
2022/06/11 11:54:59;;;;;;;13.55;2.78;;;22.70;99.90;;;;;;4995653;28;20100;-67
2022/06/11 11:57:31;;;;;;;2.63;1.38;;;22.50;99.90;;;;;;4999441;28;20064;-67
2022/06/11 12:00:18;;;;;;;2.03;1.40;;;22.60;99.90;;;;;;4996335;28;20185;-65
2022/06/11 12:02:48;;;;;;;3.17;1.58;;;22.50;99.90;;;;;;4992849;28;20065;-65
2022/06/11 12:05:55;;;;;;;4.40;2.00;;;22.70;99.90;;;;;;4996745;28;20124;-65
2022/06/11 12:08:35;;;;;;;2.67;1.75;;;22.90;99.90;;;;;;4990602;28;20090;-67
2022/06/11 12:11:04;;;;;;;6.53;3.40;;;22.90;99.90;;;;;;4998114;28;20085;-71
2022/06/11 12:13:42;;;;;;;4.28;1.60;;;23.10;99.90;;;;;;4995709;28;20550;-65
2022/06/11 12:16:25;;;;;;;2.70;1.38;;;23.00;99.90;;;;;;4996590;28;20064;-71
2022/06/11 12:19:14;;;;;;;6.55;2.05;;;23.20;99.90;;;;;;4994250;28;20057;-66
2022/06/11 12:21:44;;;;;;;6.80;1.88;;;23.10;99.90;;;;;;4995836;28;20124;-67
2022/06/11 12:24:34;;;;;;;10.23;2.35;;;23.20;99.90;;;;;;5000335;28;20058;-70
2022/06/11 12:27:04;;;;;;;;;;;23.40;99.90;;;;;;4987092;28;20763;-69
2022/06/11 12:29:45;;;;;;;4.95;1.55;;;23.40;99.90;;;;;;4997101;28;19999;-67
2022/06/11 12:32:20;;;;;;;8.55;1.67;;;23.50;99.90;;;;;;4993578;28;20140;-71
2022/06/11 12:34:48;;;;;;;3.05;2.03;;;23.20;99.90;;;;;;4997251;28;20490;-69
2022/06/11 12:37:36;;;;;;;2.45;1.85;;;23.30;99.90;;;;;;4996764;28;20049;-66
2022/06/11 12:40:15;;;;;;;4.93;2.22;;;23.30;99.90;;;;;;4995985;28;20060;-67
2022/06/11 12:42:57;;;;;;;6.47;2.67;;;23.30;99.90;;;;;;4989408;28;20099;-69
2022/06/11 12:45:34;;;;;;;3.50;2.10;;;23.20;99.90;;;;;;4994687;28;20484;-66
2022/06/11 12:48:17;;;;;;;4.18;1.73;;;23.40;99.90;;;;;;4980121;28;20558;-66
2022/06/11 12:51:01;;;;;;;6.25;3.50;;;23.10;99.90;;;;;;4998815;28;20077;-65
2022/06/11 12:53:43;;;;;;;5.95;1.95;;;23.10;99.90;;;;;;4997243;28;20056;-65
2022/06/11 12:56:50;;;;;;;3.15;2.33;;;23.20;99.90;;;;;;4994471;28;20062;-75
2022/06/11 12:59:35;;;;;;;13.88;5.38;;;23.10;99.90;;;;;;4988878;28;20053;-69
2022/06/11 13:02:15;;;;;;;3.58;2.20;;;23.20;99.90;;;;;;4999161;28;20141;-67
2022/06/11 13:05:13;;;;;;;8.77;4.00;;;23.10;99.90;;;;;;4992528;28;20057;-65
2022/06/11 13:08:04;;;;;;;4.47;2.47;;;23.10;99.90;;;;;;4998103;28;20116;-66
2022/06/11 13:10:38;;;;;;;4.50;2.90;;;23.40;99.90;;;;;;4998462;28;20050;-67
2022/06/11 13:13:34;;;;;;;4.97;1.83;;;23.40;99.90;;;;;;4990685;28;20050;-72
2022/06/11 13:16:01;;;;;;;5.45;2.55;;;23.50;99.90;;;;;;4996069;28;20096;-68
2022/06/11 13:18:50;;;;;;;6.55;2.33;;;23.70;99.90;;;;;;4993933;28;20149;-67
2022/06/11 13:21:25;;;;;;;4.75;2.28;;;23.90;99.90;;;;;;4991772;28;20045;-66
2022/06/11 13:24:08;;;;;;;3.28;1.95;;;23.90;99.90;;;;;;4998600;28;20077;-66
2022/06/11 13:26:46;;;;;;;7.95;2.08;;;23.90;99.90;;;;;;4993430;28;20155;-65
2022/06/11 13:29:37;;;;;;;3.33;1.55;;;23.80;99.90;;;;;;4977803;28;20074;-66